Time,TemperatureF,DewpointF,PressureIn,WindDirection,WindDirectionDegrees,WindSpeedMPH,WindSpeedGustMPH,Humidity,HourlyPrecipIn,Conditions,Clouds,dailyrainin,SoftwareType,DateUTC
2013-09-17 00:24:00,42.0,35.0,30.23,NNW,344,6.0,-999.0,77,-99.99,,,-99.99,,2013-09-17 04:24:00,
2013-09-17 00:54:00,41.0,35.0,30.24,North,356,2.0,-999.0,80,-99.99,,,-99.99,,2013-09-17 04:54:00,
2013-09-17 01:23:00,41.0,36.0,30.25,North,356,4.0,-999.0,81,-99.99,,,-99.99,,2013-09-17 05:23:00,
2013-09-17 01:52:00,41.0,36.0,30.26,North,360,4.0,-999.0,81,-99.99,,,-99.99,,2013-09-17 05:52:00,
2013-09-17 02:12:00,41.0,36.0,30.26,NNW,336,5.0,-999.0,81,-99.99,,,-99.99,,2013-09-17 06:12:00,
2013-09-17 02:22:00,40.0,35.0,30.27,North,359,4.0,-999.0,82,-99.99,,,-99.99,,2013-09-17 06:22:00,
2013-09-17 02:52:00,40.0,35.0,30.27,North,360,2.0,-999.0,83,-99.99,,,-99.99,,2013-09-17 06:52:00,
2013-09-17 03:23:00,39.0,34.0,30.27,North,359,4.0,-999.0,83,-99.99,,,-99.99,,2013-09-17 07:23:00,
2013-09-17 03:52:00,39.0,35.0,30.28,NNW,335,0.0,-999.0,86,-99.99,,,-99.99,,2013-09-17 07:52:00,
2013-09-17 04:22:00,39.0,35.0,30.28,North,354,0.0,-999.0,87,-99.99,,,-99.99,,2013-09-17 08:22:00,
2013-09-17 04:52:00,38.0,35.0,30.29,NNW,346,0.0,-999.0,89,-99.99,,,-99.99,,2013-09-17 08:52:00,
2013-09-17 05:22:00,38.0,35.0,30.30,North,349,0.0,-999.0,89,-99.99,,,-99.99,,2013-09-17 09:22:00,
2013-09-17 05:53:00,38.0,35.0,30.31,NW,320,0.0,-999.0,90,-99.99,,,-99.99,,2013-09-17 09:53:00,
2013-09-17 06:23:00,37.0,35.0,30.32,NW,320,0.0,-999.0,91,-99.99,,,-99.99,,2013-09-17 10:23:00,
2013-09-17 06:42:00,37.0,35.0,30.34,NW,320,0.0,-999.0,92,-99.99,,,-99.99,,2013-09-17 10:42:00,
2013-09-17 06:53:00,37.0,35.0,30.34,NW,320,0.0,-999.0,93,-99.99,,,-99.99,,2013-09-17 10:53:00,
2013-09-17 07:22:00,36.0,35.0,30.32,NW,312,0.0,-999.0,95,-99.99,,,-99.99,,2013-09-17 11:22:00,
2013-09-17 07:52:00,36.0,35.0,30.33,NW,320,1.0,-999.0,97,-99.99,,,-99.99,,2013-09-17 11:52:00,
2013-09-17 08:12:00,36.0,35.0,30.33,NW,313,0.0,-999.0,97,-99.99,,,-99.99,,2013-09-17 12:12:00,
2013-09-17 08:22:00,37.0,36.0,30.33,NW,318,1.0,-999.0,97,-99.99,,,-99.99,,2013-09-17 12:22:00,
2013-09-17 08:52:00,40.0,38.0,30.35,NW,311,1.0,-999.0,92,-99.99,,,-99.99,,2013-09-17 12:52:00,
2013-09-17 09:22:00,42.0,38.0,30.38,North,359,3.0,-999.0,85,-99.99,,,-99.99,,2013-09-17 13:22:00,
2013-09-17 09:52:00,44.0,39.0,30.40,NW,306,3.0,-999.0,82,-99.99,,,-99.99,,2013-09-17 13:52:00,
2013-09-17 10:22:00,46.0,39.0,30.39,NNW,337,4.0,-999.0,75,-99.99,,,-99.99,,2013-09-17 14:22:00,
2013-09-17 10:52:00,49.0,40.0,30.40,NNW,346,1.0,-999.0,72,-99.99,,,-99.99,,2013-09-17 14:52:00,
2013-09-17 11:22:00,52.0,40.0,30.39,North,360,3.0,-999.0,63,-99.99,,,-99.99,,2013-09-17 15:22:00,
2013-09-17 11:53:00,52.0,39.0,30.40,North,360,5.0,-999.0,61,-99.99,,,-99.99,,2013-09-17 15:53:00,
2013-09-17 12:23:00,53.0,40.0,30.40,North,360,2.0,-999.0,62,-99.99,,,-99.99,,2013-09-17 16:23:00,
2013-09-17 12:54:00,57.0,41.0,30.41,North,360,3.0,-999.0,55,-99.99,,,-99.99,,2013-09-17 16:54:00,
2013-09-17 13:24:00,58.0,41.0,30.40,WNW,288,4.0,-999.0,54,-99.99,,,-99.99,,2013-09-17 17:24:00,
2013-09-17 13:53:00,59.0,42.0,30.40,NNW,337,3.0,-999.0,53,-99.99,,,-99.99,,2013-09-17 17:53:00,
2013-09-17 14:22:00,60.0,41.0,30.37,WNW,298,2.0,-999.0,50,-99.99,,,-99.99,,2013-09-17 18:22:00,
2013-09-17 14:52:00,61.0,43.0,30.37,North,360,4.0,-999.0,51,-99.99,,,-99.99,,2013-09-17 18:52:00,
2013-09-17 15:22:00,62.0,42.0,30.35,North,359,2.0,-999.0,48,-99.99,,,-99.99,,2013-09-17 19:22:00,
2013-09-17 15:52:00,59.0,42.0,30.34,North,360,1.0,-999.0,53,-99.99,,,-99.99,,2013-09-17 19:52:00,
2013-09-17 16:22:00,58.0,42.0,30.33,NW,308,1.0,-999.0,56,-99.99,,,-99.99,,2013-09-17 20:22:00,
2013-09-17 16:52:00,58.0,40.0,30.33,North,359,3.0,-999.0,52,-99.99,,,-99.99,,2013-09-17 20:52:00,
2013-09-17 17:22:00,58.0,42.0,30.32,North,360,1.0,-999.0,55,-99.99,,,-99.99,,2013-09-17 21:22:00,
2013-09-17 17:54:00,58.0,41.0,30.32,NNW,342,0.0,-999.0,54,-99.99,,,-99.99,,2013-09-17 21:54:00,
2013-09-17 18:24:00,57.0,45.0,30.32,NNW,343,0.0,-999.0,64,-99.99,,,-99.99,,2013-09-17 22:24:00,
2013-09-17 18:53:00,55.0,44.0,30.32,NNW,343,0.0,-999.0,67,-99.99,,,-99.99,,2013-09-17 22:53:00,
2013-09-17 19:22:00,53.0,42.0,30.31,NNW,343,0.0,-999.0,67,-99.99,,,-99.99,,2013-09-17 23:22:00,
2013-09-17 19:52:00,53.0,42.0,30.31,NNW,343,0.0,-999.0,66,-99.99,,,-99.99,,2013-09-17 23:52:00,
2013-09-17 20:22:00,52.0,42.0,30.32,NNW,343,0.0,-999.0,68,-99.99,,,-99.99,,2013-09-18 00:22:00,
2013-09-17 20:52:00,51.0,40.0,30.32,NNW,343,0.0,-999.0,67,-99.99,,,-99.99,,2013-09-18 00:52:00,
2013-09-17 21:22:00,51.0,43.0,30.32,NNW,343,0.0,-999.0,73,-99.99,,,-99.99,,2013-09-18 01:22:00,
2013-09-17 21:53:00,49.0,42.0,30.32,NNW,343,0.0,-999.0,78,-99.99,,,-99.99,,2013-09-18 01:53:00,
2013-09-17 22:22:00,49.0,43.0,30.32,NNW,343,0.0,-999.0,80,-99.99,,,-99.99,,2013-09-18 02:22:00,
2013-09-17 22:43:00,49.0,44.0,30.31,NNW,343,0.0,-999.0,82,-99.99,,,-99.99,,2013-09-18 02:43:00,
2013-09-17 22:52:00,48.0,43.0,30.31,NNW,343,0.0,-999.0,82,-99.99,,,-99.99,,2013-09-18 02:52:00,
2013-09-17 23:23:00,48.0,43.0,30.30,NNW,343,0.0,-999.0,84,-99.99,,,-99.99,,2013-09-18 03:23:00,
2013-09-17 23:55:00,47.0,43.0,30.30,NNW,343,0.0,-999.0,87,-99.99,,,-99.99,,2013-09-18 03:55:00,